Time;durP1;ratioP1;P1;durP2;ratioP2;P2;SDS_P1;SDS_P2;PMS_P1;PMS_P2;Temp;Humidity;BMP_temperature;BMP_pressure;BME280_temperature;BME280_humidity;BME280_pressure;Samples;Min_cycle;Max_cycle;Signal;HPM_P1;HPM_P2
2021/03/11 00:01:37;;;;;;;178.65;128.32;;;179.70;1715.20;;;;;;4992846;28;20098;-65
2021/03/11 00:04:03;;;;;;;136.75;87.45;;;179.70;1715.20;;;;;;4992900;28;20564;-66
2021/03/11 00:06:29;;;;;;;145.77;95.88;;;179.70;1894.40;;;;;;4983552;28;20022;-65
2021/03/11 00:08:55;;;;;;;104.60;68.75;;;;;;;;;;4992967;28;20027;-65
2021/03/11 00:11:21;;;;;;;113.25;73.07;;;179.40;1715.20;;;;;;4992711;28;20034;-64
2021/03/11 00:13:47;;;;;;;155.07;101.22;;;179.40;1715.20;;;;;;4992538;28;20492;-64
2021/03/11 00:16:12;;;;;;;211.38;149.40;;;179.40;1715.20;;;;;;4992850;28;20491;-65
2021/03/11 00:18:38;;;;;;;133.75;88.28;;;179.40;1766.40;;;;;;4992684;28;20030;-66
2021/03/11 00:21:04;;;;;;;132.93;84.20;;;179.50;1792.00;;;;;;4991648;28;20033;-65
2021/03/11 00:23:30;;;;;;;144.77;87.95;;;179.40;1740.80;;;;;;4982917;28;20038;-65
2021/03/11 00:25:55;;;;;;;115.60;71.90;;;179.40;1740.80;;;;;;4991369;28;20026;-66
2021/03/11 00:28:21;;;;;;;130.68;81.22;;;179.30;1740.80;;;;;;4982186;28;20030;-66
2021/03/11 00:30:47;;;;;;;91.93;55.95;;;154.50;1792.00;;;;;;4996477;28;20027;-66
2021/03/11 00:33:13;;;;;;;97.20;56.00;;;154.40;1817.60;;;;;;4996186;28;20508;-66
2021/03/11 00:35:38;;;;;;;94.43;56.38;;;154.40;1817.60;;;;;;4996205;28;20098;-66
2021/03/11 00:38:04;;;;;;;99.95;58.72;;;179.20;1792.00;;;;;;4996615;28;20487;-65
2021/03/11 00:40:32;;;;;;;88.43;54.05;;;;;;;;;;4996444;28;20031;-65
2021/03/11 00:42:59;;;;;;;87.30;55.55;;;;;;;;;;4995904;28;20034;-65
2021/03/11 00:45:25;;;;;;;82.20;51.28;;;153.80;1843.20;;;;;;4996371;28;20019;-66
2021/03/11 00:47:50;;;;;;;91.57;59.08;;;153.70;1868.80;;;;;;4996234;28;20350;-64
2021/03/11 00:50:19;;;;;;;87.07;54.25;;;153.70;1868.80;;;;;;4996101;28;20034;-65
2021/03/11 00:52:45;;;;;;;87.65;56.95;;;153.80;1868.80;;;;;;4994787;28;20054;-66
2021/03/11 00:55:13;;;;;;;86.50;55.40;;;153.80;1868.80;;;;;;4995957;28;20014;-66
2021/03/11 00:57:39;;;;;;;97.85;64.07;;;153.60;1868.80;;;;;;4996172;28;20034;-65
2021/03/11 01:00:07;;;;;;;86.13;61.63;;;153.70;1894.40;;;;;;4995910;28;20028;-66
2021/03/11 01:02:33;;;;;;;93.22;59.95;;;153.70;1868.80;;;;;;4996288;28;20496;-67
2021/03/11 01:04:58;;;;;;;94.38;61.20;;;153.60;1894.40;;;;;;4995727;28;20026;-66
2021/03/11 01:07:24;;;;;;;101.85;78.43;;;153.60;1894.40;;;;;;4996297;28;20377;-65
2021/03/11 01:09:50;;;;;;;93.35;69.68;;;153.70;1894.40;;;;;;4995831;28;20026;-65
2021/03/11 01:12:16;;;;;;;99.30;63.20;;;153.80;1868.80;;;;;;4995708;28;20058;-65
2021/03/11 01:14:42;;;;;;;92.93;64.90;;;;;;;;;;4995526;28;20436;-64
2021/03/11 01:17:09;;;;;;;87.53;53.95;;;;;;;;;;4995467;28;20097;-64
2021/03/11 01:19:35;;;;;;;89.10;56.40;;;153.80;1843.20;;;;;;4995867;28;20059;-65
2021/03/11 01:22:01;;;;;;;102.88;61.95;;;153.90;2252.80;;;;;;4985195;28;20035;-66
2021/03/11 01:24:27;;;;;;;100.18;66.00;;;153.90;1843.20;;;;;;4995518;28;20478;-66
2021/03/11 01:26:53;;;;;;;101.55;63.47;;;154.00;1843.20;;;;;;4995298;28;20046;-65
2021/03/11 01:29:19;;;;;;;118.65;77.22;;;153.90;1843.20;;;;;;4995444;28;20018;-65
2021/03/11 01:31:46;;;;;;;92.72;58.88;;;153.90;1843.20;;;;;;4995271;28;20062;-66
2021/03/11 01:34:12;;;;;;;93.65;60.47;;;153.60;1868.80;;;;;;4995357;28;20026;-66
2021/03/11 01:36:37;;;;;;;99.47;64.10;;;153.80;1868.80;;;;;;4995778;28;20073;-66
2021/03/11 01:39:04;;;;;;;83.78;54.60;;;153.80;1868.80;;;;;;4994616;28;20504;-65
2021/03/11 01:41:29;;;;;;;85.97;52.63;;;128.90;1868.80;;;;;;4995075;28;20028;-65
2021/03/11 01:43:56;;;;;;;105.93;61.25;;;;;;;;;;4995372;28;20028;-64
2021/03/11 01:46:23;;;;;;;129.18;69.78;;;;;;;;;;4994933;28;20030;-66
2021/03/11 01:48:49;;;;;;;150.00;86.68;;;;;;;;;;4995183;28;20093;-65
2021/03/11 01:51:15;;;;;;;87.15;52.28;;;128.90;1868.80;;;;;;4994090;28;20038;-66
2021/03/11 01:53:41;;;;;;;75.68;46.97;;;128.90;2227.20;;;;;;4994928;28;20042;-66
2021/03/11 01:56:07;;;;;;;83.35;53.10;;;128.90;2176.00;;;;;;4995006;28;20088;-65
2021/03/11 01:58:33;;;;;;;130.57;74.18;;;128.90;1868.80;;;;;;4995038;28;20032;-66
2021/03/11 02:00:58;;;;;;;94.75;58.15;;;128.90;1894.40;;;;;;4994985;28;20030;-65
2021/03/11 02:03:24;;;;;;;109.70;64.32;;;153.70;1868.80;;;;;;4994746;28;20438;-67
2021/03/11 02:05:50;;;;;;;92.75;58.33;;;153.60;1868.80;;;;;;4995057;28;20026;-66
2021/03/11 02:08:16;;;;;;;103.60;64.82;;;153.70;1894.40;;;;;;4994680;28;20382;-66
2021/03/11 02:10:43;;;;;;;101.13;65.40;;;;;;;;;;4994965;28;20030;-66
2021/03/11 02:13:09;;;;;;;101.13;62.30;;;;;;;;;;4976745;28;20050;-65
2021/03/11 02:15:50;;;;;;;68.72;44.47;;;;;;;;;;4994459;28;20019;-65
2021/03/11 02:18:22;;;;;;;68.25;45.25;;;;;;;;;;4994769;28;20499;-66
2021/03/11 02:20:56;;;;;;;70.38;45.63;;;128.90;1843.20;;;;;;4969002;28;20373;-66
2021/03/11 02:23:44;;;;;;;75.00;46.67;;;128.60;1868.80;;;;;;4984411;28;20022;-67
2021/03/11 02:26:18;;;;;;;74.32;47.55;;;128.40;1894.40;;;;;;4972780;28;20424;-66
2021/03/11 02:29:07;;;;;;;68.50;43.92;;;128.20;2252.80;;;;;;4994224;28;20089;-67
2021/03/11 02:31:35;;;;;;;60.00;37.50;;;;;;;;;;4994264;28;20110;-67
2021/03/11 02:34:09;;;;;;;52.38;33.67;;;128.40;1894.40;;;;;;4994445;28;20070;-66
2021/03/11 02:36:37;;;;;;;53.38;34.67;;;128.30;1945.60;;;;;;4994034;28;20457;-66
2021/03/11 02:39:06;;;;;;;52.47;35.67;;;128.20;1920.00;;;;;;4994105;28;20081;-66
2021/03/11 02:41:33;;;;;;;48.25;33.47;;;128.10;1920.00;;;;;;4993996;28;20014;-66
2021/03/11 02:43:59;;;;;;;57.10;38.08;;;;;;;;;;4994038;28;20027;-67
2021/03/11 02:46:26;;;;;;;55.83;36.13;;;;;;;;;;4994005;28;20022;-67
2021/03/11 02:48:52;;;;;;;58.47;36.65;;;;;;;;;;4993992;28;20034;-66
2021/03/11 02:51:19;;;;;;;64.68;40.38;;;;;;;;;;4989778;28;20125;-66
2021/03/11 02:53:45;;;;;;;57.05;38.90;;;;;;;;;;4970664;28;20591;-66
2021/03/11 02:56:12;;;;;;;56.45;39.33;;;;;;;;;;4975846;28;20077;-63
2021/03/11 02:58:42;;;;;;;61.83;39.75;;;;;;;;;;4974492;28;20177;-66
2021/03/11 03:01:09;;;;;;;62.22;40.95;;;;;;;;;;4986776;28;20031;-67
2021/03/11 03:03:36;;;;;;;57.35;36.95;;;;;;;;;;4993673;28;20390;-67
2021/03/11 03:06:02;;;;;;;56.22;38.63;;;;;;;;;;4993923;28;20038;-66
2021/03/11 03:08:29;;;;;;;55.70;38.90;;;;;;;;;;4993866;28;20365;-66
2021/03/11 03:10:55;;;;;;;66.90;44.80;;;;;;;;;;4993676;28;20113;-66
2021/03/11 03:13:22;;;;;;;50.42;34.72;;;;;;;;;;4993300;28;20034;-66
2021/03/11 03:15:48;;;;;;;48.83;31.95;;;;;;;;;;4993574;28;20361;-67
2021/03/11 03:18:16;;;;;;;50.08;32.92;;;;;;;;;;4993535;28;20084;-67
2021/03/11 03:20:42;;;;;;;50.35;33.28;;;;;;;;;;4993270;28;20097;-66
2021/03/11 03:23:09;;;;;;;45.67;31.70;;;;;;;;;;4983845;28;20059;-65
2021/03/11 03:25:35;;;;;;;47.65;32.00;;;;;;;;;;4993328;28;20025;-66
2021/03/11 03:28:02;;;;;;;42.28;28.83;;;;;;;;;;4993620;28;20041;-66
2021/03/11 03:30:28;;;;;;;43.00;27.90;;;;;;;;;;4993272;28;20034;-66
2021/03/11 03:32:54;;;;;;;43.60;29.60;;;;;;;;;;4975527;28;20420;-67
2021/03/11 03:35:23;;;;;;;49.42;30.17;;;;;;;;;;4993393;28;20037;-66
2021/03/11 03:37:50;;;;;;;45.58;31.45;;;;;;;;;;4993078;28;20049;-67
2021/03/11 03:40:17;;;;;;;51.60;35.05;;;;;;;;;;4993210;28;20101;-66
2021/03/11 03:42:49;;;;;;;50.95;34.75;;;;;;;;;;4993034;28;20432;-65
2021/03/11 03:45:21;;;;;;;59.58;36.97;;;;;;;;;;4993091;28;20084;-67
2021/03/11 03:47:48;;;;;;;61.92;38.33;;;;;;;;;;4993239;28;20540;-66
2021/03/11 03:50:14;;;;;;;67.75;38.67;;;;;;;;;;4993075;28;20080;-66
2021/03/11 03:52:41;;;;;;;56.42;37.95;;;128.50;1843.20;;;;;;4967877;28;20134;-65
2021/03/11 03:55:09;;;;;;;61.75;37.33;;;128.40;2022.40;;;;;;4991619;28;20493;-66
2021/03/11 03:57:38;;;;;;;53.00;35.45;;;128.10;1868.80;;;;;;4993179;28;20030;-66
2021/03/11 04:00:07;;;;;;;60.50;35.83;;;128.00;1868.80;;;;;;4991660;28;20031;-65
2021/03/11 04:02:34;;;;;;;59.72;36.78;;;103.30;1843.20;;;;;;4994923;28;20054;-66
2021/03/11 04:05:03;;;;;;;63.97;36.97;;;103.20;1843.20;;;;;;4991009;28;20042;-63
2021/03/11 04:07:30;;;;;;;58.97;35.42;;;128.00;1843.20;;;;;;4997082;28;20034;-65
2021/03/11 04:09:57;;;;;;;56.15;35.08;;;;;;;;;;4996947;28;20121;-67
2021/03/11 04:12:23;;;;;;;53.78;34.53;;;102.90;1868.80;;;;;;4996859;28;20034;-66
2021/03/11 04:14:51;;;;;;;55.15;33.15;;;102.60;1894.40;;;;;;4997155;28;20101;-66
2021/03/11 04:17:17;;;;;;;65.30;41.67;;;102.50;1920.00;;;;;;4996641;28;20022;-66
2021/03/11 04:19:44;;;;;;;63.88;39.50;;;102.60;1894.40;;;;;;4996798;28;20088;-66
2021/03/11 04:22:10;;;;;;;76.05;45.25;;;102.80;1868.80;;;;;;4985804;28;20138;-67
2021/03/11 04:24:37;;;;;;;68.95;43.70;;;103.00;1868.80;;;;;;4996732;28;20362;-66
2021/03/11 04:27:06;;;;;;;62.45;40.00;;;103.00;1843.20;;;;;;4981560;28;20440;-67
2021/03/11 04:29:33;;;;;;;62.78;40.05;;;103.00;1843.20;;;;;;4996539;28;20026;-66
2021/03/11 04:32:00;;;;;;;68.43;40.88;;;102.80;1868.80;;;;;;4996401;28;20097;-67
2021/03/11 04:34:26;;;;;;;64.05;41.03;;;102.70;1894.40;;;;;;4996401;28;20049;-65
2021/03/11 04:36:52;;;;;;;73.82;42.50;;;102.60;1894.40;;;;;;4996916;28;20045;-65
2021/03/11 04:39:19;;;;;;;57.83;39.47;;;102.50;1920.00;;;;;;4996097;28;20038;-66
2021/03/11 04:41:46;;;;;;;62.90;40.35;;;;;;;;;;4996507;28;20026;-65
2021/03/11 04:44:12;;;;;;;60.03;38.53;;;;;;;;;;4996471;28;20068;-66
2021/03/11 04:46:38;;;;;;;68.22;42.92;;;;;;;;;;4996251;28;20022;-69
2021/03/11 04:49:05;;;;;;;83.65;48.58;;;;;;;;;;4996669;28;20034;-67
2021/03/11 04:51:32;;;;;;;73.32;46.22;;;;;;;;;;4990045;28;20078;-67
2021/03/11 04:53:58;;;;;;;75.00;47.22;;;;;;;;;;4976264;28;20045;-66
2021/03/11 04:56:26;;;;;;;76.22;46.38;;;;;;;;;;4995859;28;20100;-66
2021/03/11 04:58:54;;;;;;;87.40;54.85;;;;;;;;;;4995928;28;20028;-66
2021/03/11 05:01:21;;;;;;;77.68;52.17;;;;;;;;;;4995815;28;20022;-66
2021/03/11 05:03:48;;;;;;;101.35;64.05;;;;;;;;;;4995847;28;20026;-66
2021/03/11 05:06:14;;;;;;;101.32;65.22;;;;;;;;;;4996018;28;20054;-66
2021/03/11 05:08:41;;;;;;;102.10;66.22;;;;;;;;;;4978272;28;20440;-66
2021/03/11 05:11:07;;;;;;;94.38;57.38;;;;;;;;;;4995759;28;20022;-67
2021/03/11 05:13:33;;;;;;;114.65;67.65;;;103.20;1766.40;;;;;;4994167;28;20105;-66
2021/03/11 05:15:59;;;;;;;106.82;67.13;;;103.20;1766.40;;;;;;4995761;28;20540;-65
2021/03/11 05:18:26;;;;;;;123.60;72.55;;;103.20;1766.40;;;;;;4995345;28;20030;-66
2021/03/11 05:20:52;;;;;;;106.30;69.68;;;103.10;1766.40;;;;;;4995610;28;20037;-64
2021/03/11 05:23:19;;;;;;;101.70;66.25;;;103.30;1740.80;;;;;;4987036;28;20492;-66
2021/03/11 05:25:45;;;;;;;99.53;68.50;;;128.00;1766.40;;;;;;4995451;28;20018;-63
2021/03/11 05:28:11;;;;;;;103.50;69.80;;;128.10;1766.40;;;;;;4995521;28;20026;-66
2021/03/11 05:30:37;;;;;;;114.40;74.30;;;128.10;1792.00;;;;;;4995281;28;20050;-67
2021/03/11 05:33:03;;;;;;;121.65;76.45;;;128.10;1792.00;;;;;;4995317;28;20038;-66
2021/03/11 05:35:28;;;;;;;115.40;74.30;;;128.00;1792.00;;;;;;4995268;28;20037;-65
2021/03/11 05:37:56;;;;;;;109.70;67.82;;;;;;;;;;4995130;28;20073;-64
2021/03/11 05:40:23;;;;;;;126.45;78.45;;;;;;;;;;4995339;28;20023;-63
2021/03/11 05:42:50;;;;;;;126.63;77.28;;;;;;;;;;4995138;28;20469;-65
2021/03/11 05:45:16;;;;;;;105.97;67.10;;;;;;;;;;4977164;28;20042;-67
2021/03/11 05:47:44;;;;;;;139.32;83.65;;;;;;;;;;4994922;28;20027;-63
2021/03/11 05:50:10;;;;;;;103.63;67.85;;;;;;;;;;4995072;28;20034;-67
2021/03/11 05:52:37;;;;;;;127.00;80.53;;;;;;;;;;4971881;28;20055;-66
2021/03/11 05:55:07;;;;;;;117.13;73.68;;;;;;;;;;4992549;28;20018;-64
2021/03/11 05:57:33;;;;;;;136.43;85.47;;;;;;;;;;4995067;28;20065;-65
2021/03/11 06:00:00;;;;;;;142.18;87.95;;;;;;;;;;4994635;28;20022;-65
2021/03/11 06:02:26;;;;;;;167.60;97.43;;;;;;;;;;4994703;28;20157;-66
2021/03/11 06:04:53;;;;;;;148.05;91.65;;;;;;;;;;4994762;28;20062;-63
2021/03/11 06:07:21;;;;;;;145.70;83.50;;;;;;;;;;4977240;28;20033;-67
2021/03/11 06:09:48;;;;;;;149.80;85.97;;;128.30;1689.60;;;;;;4995047;28;20369;-65
2021/03/11 06:12:15;;;;;;;171.18;98.65;;;128.10;1689.60;;;;;;4994585;28;20026;-64
2021/03/11 06:14:47;;;;;;;152.00;88.22;;;128.30;1740.80;;;;;;4994535;28;20019;-62
2021/03/11 06:17:13;;;;;;;148.13;86.95;;;128.00;1715.20;;;;;;4994327;28;20469;-62
2021/03/11 06:19:39;;;;;;;149.55;85.40;;;128.30;1689.60;;;;;;4994572;28;20038;-67
2021/03/11 06:22:05;;;;;;;145.25;88.35;;;128.50;1715.20;;;;;;4986710;28;20106;-61
2021/03/11 06:24:30;;;;;;;158.38;91.15;;;128.50;1740.80;;;;;;4994051;28;20097;-65
2021/03/11 06:26:56;;;;;;;132.02;81.55;;;128.90;1664.00;;;;;;4994257;28;20054;-62
2021/03/11 06:29:56;;;;;;;125.20;77.60;;;128.70;1689.60;;;;;;4994156;28;20101;-63
2021/03/11 06:32:23;;;;;;;102.30;58.92;;;128.90;1689.60;;;;;;4915232;29;20032;-64
2021/03/11 06:34:49;;;;;;;108.78;63.08;;;153.60;1664.00;;;;;;4915152;29;20056;-62
2021/03/11 06:37:15;;;;;;;97.32;60.55;;;153.60;1638.40;;;;;;4915041;29;20042;-61
2021/03/11 06:39:43;;;;;;;102.38;62.30;;;153.70;1638.40;;;;;;4901659;29;20028;-62
2021/03/11 06:42:09;;;;;;;83.90;52.83;;;153.80;1638.40;;;;;;4914999;29;20046;-63
2021/03/11 06:44:43;;;;;;;74.07;47.67;;;154.00;1612.80;;;;;;4914577;29;20083;-62
2021/03/11 06:47:11;;;;;;;87.95;54.08;;;153.70;1612.80;;;;;;4914820;29;20032;-62
2021/03/11 06:50:01;;;;;;;140.52;92.22;;;153.70;1612.80;;;;;;4914742;29;20403;-62
2021/03/11 06:52:27;;;;;;;126.88;76.18;;;154.00;1587.20;;;;;;4904860;29;20053;-62
2021/03/11 06:55:07;;;;;;;107.22;66.65;;;154.10;1561.60;;;;;;4911890;29;20032;-63
2021/03/11 06:57:41;;;;;;;72.82;45.78;;;154.10;1587.20;;;;;;4914590;29;20036;-66
2021/03/11 07:00:23;;;;;;;92.80;48.17;;;154.40;1536.00;;;;;;4914434;29;20021;-66
2021/03/11 07:02:56;;;;;;;68.90;40.42;;;154.50;1561.60;;;;;;4914526;29;20487;-63
2021/03/11 07:05:24;;;;;;;79.63;46.10;;;154.30;1510.40;;;;;;4914306;29;20035;-63
2021/03/11 07:08:03;;;;;;;67.28;43.78;;;154.40;1536.00;;;;;;4951556;28;20143;-67
2021/03/11 07:10:29;;;;;;;63.10;41.80;;;153.80;1561.60;;;;;;4993188;28;20101;-64
2021/03/11 07:12:57;;;;;;;62.97;40.35;;;154.00;1561.60;;;;;;4993429;28;20066;-63
2021/03/11 07:15:24;;;;;;;169.13;87.78;;;154.30;1561.60;;;;;;4991833;28;20026;-64
2021/03/11 07:17:51;;;;;;;122.72;72.18;;;154.50;1510.40;;;;;;4979830;28;20114;-63
2021/03/11 07:20:17;;;;;;;80.40;52.42;;;154.50;1536.00;;;;;;4973902;28;20110;-65
2021/03/11 07:23:00;;;;;;;102.57;65.72;;;179.90;1484.80;;;;;;4978443;28;20319;-65
2021/03/11 07:25:32;;;;;;;111.97;64.38;;;179.80;1664.00;;;;;;4975333;28;20031;-66
2021/03/11 07:28:00;;;;;;;92.05;58.63;;;180.10;1433.60;;;;;;4993064;28;20030;-70
2021/03/11 07:30:26;;;;;;;81.18;55.22;;;180.00;1433.60;;;;;;4992862;28;20033;-66
2021/03/11 07:32:58;;;;;;;97.93;57.90;;;180.10;1433.60;;;;;;4992813;28;20096;-65
2021/03/11 07:35:26;;;;;;;83.65;53.35;;;204.80;1408.00;;;;;;4977386;28;20109;-67
2021/03/11 07:37:55;;;;;;;82.55;54.40;;;205.00;1433.60;;;;;;4981812;28;20030;-65
2021/03/11 07:40:24;;;;;;;91.35;58.45;;;;;;;;;;4993200;28;20030;-67
2021/03/11 07:42:50;;;;;;;108.97;66.57;;;205.40;1408.00;;;;;;4992936;28;20067;-65
2021/03/11 07:45:15;;;;;;;101.38;66.97;;;205.50;1382.40;;;;;;4992659;28;20026;-65
2021/03/11 07:47:41;;;;;;;100.90;65.43;;;205.70;1382.40;;;;;;4992849;28;20040;-64
2021/03/11 07:50:09;;;;;;;105.35;65.90;;;230.40;1356.80;;;;;;4993117;28;20058;-67
2021/03/11 07:52:35;;;;;;;100.68;67.68;;;205.60;1382.40;;;;;;4971519;28;20082;-68
2021/03/11 07:55:04;;;;;;;95.90;60.78;;;230.40;1331.20;;;;;;4989501;28;20054;-68
2021/03/11 07:57:44;;;;;;;88.75;58.42;;;230.60;1305.60;;;;;;4992719;28;20018;-68
2021/03/11 08:00:11;;;;;;;88.28;58.05;;;205.50;1331.20;;;;;;4992219;28;20023;-65
2021/03/11 08:02:43;;;;;;;80.85;51.60;;;205.40;1356.80;;;;;;4992790;28;20027;-68
2021/03/11 08:05:11;;;;;;;153.70;103.38;;;205.60;1331.20;;;;;;4992510;28;20029;-67
2021/03/11 08:07:37;;;;;;;68.60;46.58;;;230.60;1254.40;;;;;;4992654;28;20058;-68
2021/03/11 08:10:17;;;;;;;78.45;49.40;;;230.90;1203.20;;;;;;4992826;28;20023;-68
2021/03/11 08:12:43;;;;;;;75.72;48.35;;;231.20;1228.80;;;;;;4992424;28;20038;-66
2021/03/11 08:15:15;;;;;;;62.63;42.55;;;256.10;1177.60;;;;;;4992211;28;20081;-67
2021/03/11 08:17:42;;;;;;;;;;;256.30;1126.40;;;;;;4992942;28;20028;-67
2021/03/11 08:20:08;;;;;;;79.25;48.35;;;256.60;1126.40;;;;;;4992439;28;19905;-65
2021/03/11 08:22:53;;;;;;;65.72;45.40;;;256.90;1126.40;;;;;;4986054;28;20512;-67
2021/03/11 08:25:34;;;;;;;86.13;49.28;;;256.90;1100.80;;;;;;4991938;28;20029;-66
2021/03/11 08:28:11;;;;;;;72.50;45.70;;;281.70;1126.40;;;;;;4977141;28;20416;-65
2021/03/11 08:30:37;;;;;;;69.10;47.53;;;281.80;1075.20;;;;;;4990068;28;20029;-65
2021/03/11 08:33:04;;;;;;;61.22;39.33;;;281.70;1075.20;;;;;;4974460;28;20042;-66
2021/03/11 08:35:33;;;;;;;94.15;63.22;;;281.80;1049.60;;;;;;4990226;28;20129;-64
2021/03/11 08:38:00;;;;;;;54.75;37.83;;;281.70;1075.20;;;;;;4992133;28;20050;-65
2021/03/11 08:40:44;;;;;;;59.45;35.72;;;281.60;998.40;;;;;;4992323;28;20058;-66
2021/03/11 08:43:10;;;;;;;40.97;26.75;;;256.70;998.40;;;;;;4992504;28;20026;-65
2021/03/11 08:45:39;;;;;;;39.67;25.63;;;256.50;947.20;;;;;;4992336;28;20026;-65
2021/03/11 08:48:13;;;;;;;34.85;22.02;;;256.90;947.20;;;;;;4975590;28;20026;-65
2021/03/11 08:50:41;;;;;;;50.08;27.25;;;282.00;896.00;;;;;;4995918;28;20053;-65
2021/03/11 08:53:06;;;;;;;46.05;31.58;;;282.00;947.20;;;;;;4971951;28;20047;-65
2021/03/11 08:55:38;;;;;;;65.43;40.35;;;282.20;947.20;;;;;;4995647;28;20031;-64
2021/03/11 08:58:22;;;;;;;;;;;307.20;972.80;;;;;;4980938;28;20097;-64
2021/03/11 09:01:02;;;;;;;53.40;35.72;;;307.60;972.80;;;;;;4976294;28;19917;-63
2021/03/11 09:03:35;;;;;;;75.38;46.45;;;307.70;972.80;;;;;;4976030;28;20027;-65
2021/03/11 09:06:02;;;;;;;30.50;21.65;;;307.60;921.60;;;;;;4976014;28;20501;-64
2021/03/11 09:08:28;;;;;;;65.85;38.83;;;282.50;870.40;;;;;;4976187;28;20446;-64
2021/03/11 09:11:07;;;;;;;44.22;27.10;;;282.50;896.00;;;;;;4976062;28;20018;-64
2021/03/11 09:13:33;;;;;;;38.50;27.75;;;307.40;896.00;;;;;;4975717;28;20096;-64
2021/03/11 09:15:59;;;;;;;47.67;30.13;;;307.40;870.40;;;;;;4975786;28;20413;-64
2021/03/11 09:18:25;;;;;;;29.83;20.45;;;308.10;896.00;;;;;;4975733;28;20555;-64
2021/03/11 09:20:53;;;;;;;24.35;18.13;;;333.20;844.80;;;;;;4975583;28;20034;-64
2021/03/11 09:23:19;;;;;;;38.20;22.45;;;333.30;819.20;;;;;;4975513;28;20151;-65
2021/03/11 09:25:45;;;;;;;35.47;20.42;;;333.40;844.80;;;;;;4975673;28;20163;-66
2021/03/11 09:28:14;;;;;;;23.98;17.55;;;333.30;793.60;;;;;;4967564;28;20026;-66
2021/03/11 09:30:41;;;;;;;38.65;21.52;;;333.00;844.80;;;;;;4974103;28;20018;-64
2021/03/11 09:33:08;;;;;;;27.58;17.27;;;333.70;844.80;;;;;;4979459;28;20026;-64
2021/03/11 09:35:33;;;;;;;21.27;16.23;;;410.00;665.60;;;;;;4979229;28;20286;-65
2021/03/11 09:38:03;;;;;;;26.67;20.70;;;512.70;460.80;;;;;;4979580;28;20165;-70
2021/03/11 09:40:38;;;;;;;27.77;21.13;;;589.70;384.00;;;;;;4994788;28;20033;-65
2021/03/11 09:43:13;;;;;;;28.23;20.13;;;665.90;332.80;;;;;;4994598;28;20022;-68
2021/03/11 09:45:48;;;;;;;29.92;22.52;;;717.30;281.60;;;;;;4994952;28;20389;-68
2021/03/11 09:48:18;;;;;;;20.35;17.58;;;743.30;256.00;;;;;;4994778;28;20018;-67
2021/03/11 09:50:54;;;;;;;27.15;24.25;;;793.70;281.60;;;;;;4977238;28;20116;-67
2021/03/11 09:53:21;;;;;;;21.35;19.08;;;819.30;230.40;;;;;;4971837;28;20034;-67
2021/03/11 09:55:48;;;;;;;21.23;18.83;;;;;;;;;;4994604;28;20033;-70
2021/03/11 09:58:15;;;;;;;23.27;19.48;;;;;;;;;;4994449;28;20104;-70
2021/03/11 10:00:41;;;;;;;18.92;17.02;;;;;;;;;;4993892;28;20500;-69
2021/03/11 10:03:19;;;;;;;18.15;16.23;;;871.30;256.00;;;;;;4994282;28;20030;-69
2021/03/11 10:05:49;;;;;;;19.05;17.13;;;896.90;256.00;;;;;;4994581;28;20026;-68
2021/03/11 10:08:28;;;;;;;27.38;24.48;;;870.70;256.00;;;;;;4994482;28;20358;-69
2021/03/11 10:11:12;;;;;;;22.60;20.30;;;871.10;256.00;;;;;;4993912;28;20034;-66
2021/03/11 10:14:01;;;;;;;32.05;22.58;;;845.00;256.00;;;;;;4982950;28;20118;-67
2021/03/11 10:16:32;;;;;;;21.67;18.83;;;896.00;256.00;;;;;;4974872;28;20019;-66
2021/03/11 10:19:11;;;;;;;26.85;19.60;;;896.40;256.00;;;;;;4974993;28;20370;-67
2021/03/11 10:21:49;;;;;;;21.10;19.10;;;896.70;256.00;;;;;;4974376;28;20025;-67
2021/03/11 10:24:45;;;;;;;17.60;15.73;;;896.10;256.00;;;;;;4967464;28;20583;-66
2021/03/11 10:27:31;;;;;;;18.67;16.85;;;871.20;256.00;;;;;;4971786;28;20023;-67
2021/03/11 10:30:37;;;;;;;19.15;17.23;;;870.70;256.00;;;;;;4974083;28;20029;-66
2021/03/11 10:33:04;;;;;;;22.02;19.48;;;845.60;256.00;;;;;;4902143;29;20503;-67
2021/03/11 10:35:30;;;;;;;20.17;18.05;;;871.30;256.00;;;;;;4896431;29;20048;-67
2021/03/11 10:38:25;;;;;;;18.10;16.30;;;896.50;256.00;;;;;;4897355;29;20040;-67
2021/03/11 10:40:51;;;;;;;33.28;24.55;;;896.90;256.00;;;;;;4890306;29;20032;-68
2021/03/11 10:43:25;;;;;;;20.08;18.05;;;896.30;256.00;;;;;;4895867;29;20140;-67
2021/03/11 10:45:52;;;;;;;47.72;40.67;;;896.60;256.00;;;;;;4895833;29;20083;-67
2021/03/11 10:48:18;;;;;;;19.30;17.52;;;896.00;256.00;;;;;;4895754;29;20499;-67
2021/03/11 10:50:47;;;;;;;37.63;26.02;;;871.00;256.00;;;;;;4895719;29;20045;-67
2021/03/11 10:53:16;;;;;;;27.42;23.30;;;896.60;256.00;;;;;;4878752;29;20040;-68
2021/03/11 10:55:44;;;;;;;35.83;28.58;;;922.00;281.60;;;;;;4895862;29;20040;-68
2021/03/11 10:58:26;;;;;;;32.47;27.80;;;896.70;256.00;;;;;;4895612;29;20037;-67
2021/03/11 11:01:16;;;;;;;21.30;19.10;;;870.80;256.00;;;;;;4895437;29;20037;-67
2021/03/11 11:03:42;;;;;;;34.08;30.88;;;896.50;256.00;;;;;;4895563;29;20036;-67
2021/03/11 11:06:08;;;;;;;22.75;20.38;;;896.50;256.00;;;;;;4895590;29;20036;-67
2021/03/11 11:08:37;;;;;;;61.55;54.45;;;921.60;281.60;;;;;;4908231;28;20158;-68
2021/03/11 11:11:03;;;;;;;25.75;23.10;;;871.20;256.00;;;;;;4973622;28;20481;-67
2021/03/11 11:13:30;;;;;;;20.13;18.05;;;845.40;256.00;;;;;;4973602;28;20038;-67
2021/03/11 11:15:55;;;;;;;19.40;17.52;;;870.40;256.00;;;;;;4973742;28;20126;-66
2021/03/11 11:18:22;;;;;;;22.48;20.27;;;870.60;256.00;;;;;;4973841;28;20121;-67
2021/03/11 11:20:48;;;;;;;27.77;23.42;;;870.70;256.00;;;;;;4973721;28;20062;-68
2021/03/11 11:23:14;;;;;;;26.70;23.40;;;870.80;256.00;;;;;;4971164;28;20501;-69
2021/03/11 11:25:39;;;;;;;29.65;25.08;;;870.90;256.00;;;;;;4973895;28;20078;-67
2021/03/11 11:28:05;;;;;;;23.30;20.88;;;896.10;256.00;;;;;;4973354;28;20027;-68
2021/03/11 11:30:31;;;;;;;21.35;19.02;;;870.70;256.00;;;;;;4973442;28;20859;-68
2021/03/11 11:32:57;;;;;;;21.88;18.52;;;870.70;256.00;;;;;;4973554;28;20050;-68
2021/03/11 11:35:23;;;;;;;22.08;19.80;;;896.00;256.00;;;;;;4973500;28;20054;-68
2021/03/11 11:37:50;;;;;;;23.30;20.95;;;870.70;256.00;;;;;;4973427;28;20038;-68
2021/03/11 11:40:16;;;;;;;23.13;20.73;;;870.80;256.00;;;;;;4973580;28;20045;-68
2021/03/11 11:42:43;;;;;;;21.67;19.13;;;845.10;256.00;;;;;;4973105;28;20031;-68
2021/03/11 11:45:10;;;;;;;20.90;17.35;;;844.80;256.00;;;;;;4973360;28;20029;-68
2021/03/11 11:47:36;;;;;;;18.77;16.15;;;819.20;256.00;;;;;;4973334;28;20029;-68
2021/03/11 11:50:06;;;;;;;30.13;22.40;;;819.50;256.00;;;;;;4973033;28;20381;-69
2021/03/11 11:52:33;;;;;;;21.38;18.75;;;768.90;281.60;;;;;;4962529;28;20047;-70
2021/03/11 11:54:59;;;;;;;41.33;29.00;;;793.90;281.60;;;;;;4972218;28;20058;-66
2021/03/11 11:57:24;;;;;;;23.95;20.15;;;743.30;332.80;;;;;;4972954;28;20047;-66
2021/03/11 11:59:50;;;;;;;21.75;19.42;;;;;;;;;;4972954;28;20033;-66
2021/03/11 12:02:16;;;;;;;20.95;18.63;;;717.20;281.60;;;;;;4973172;28;20023;-67
2021/03/11 12:04:42;;;;;;;28.63;23.30;;;717.40;281.60;;;;;;4973205;28;20046;-66
2021/03/11 12:07:09;;;;;;;24.92;19.92;;;;;;;;;;4973277;28;20030;-68
2021/03/11 12:09:35;;;;;;;27.00;22.98;;;742.60;332.80;;;;;;4965678;28;20389;-67
2021/03/11 12:12:01;;;;;;;21.90;18.80;;;742.60;307.20;;;;;;4973011;28;20014;-67
2021/03/11 12:14:27;;;;;;;20.70;18.08;;;743.00;307.20;;;;;;4973115;28;20035;-67
2021/03/11 12:16:53;;;;;;;38.28;26.58;;;742.50;307.20;;;;;;4973119;28;20019;-67
2021/03/11 12:19:19;;;;;;;29.95;22.00;;;742.80;332.80;;;;;;4972682;28;20478;-68
2021/03/11 12:21:45;;;;;;;34.58;26.58;;;717.00;332.80;;;;;;4972525;28;20450;-65
2021/03/11 12:24:11;;;;;;;41.20;29.23;;;717.20;332.80;;;;;;4975531;28;20023;-68
2021/03/11 12:26:37;;;;;;;37.03;29.75;;;717.20;358.40;;;;;;4976443;28;20030;-65
2021/03/11 12:29:04;;;;;;;34.42;23.88;;;742.50;332.80;;;;;;4975753;28;20026;-66
2021/03/11 12:31:29;;;;;;;38.95;28.25;;;717.20;332.80;;;;;;4976415;28;20492;-66
2021/03/11 12:33:56;;;;;;;38.50;27.50;;;691.90;358.40;;;;;;4976494;28;20138;-65
2021/03/11 12:36:22;;;;;;;53.42;32.85;;;691.90;307.20;;;;;;4966637;28;20031;-65